createdAt,value
2022-09-15T00:01:50.645Z,5.10
2022-09-15T00:04:17.207Z,4.40
2022-09-15T00:06:43.768Z,3.97
2022-09-15T00:09:10.404Z,7.38
2022-09-15T00:11:37.477Z,3.25
2022-09-15T00:14:06.018Z,6.50
2022-09-15T00:16:33.572Z,4.75
2022-09-15T00:19:00.884Z,4.68
2022-09-15T00:21:30.386Z,4.80
2022-09-15T00:23:58.374Z,4.80
2022-09-15T00:26:27.509Z,5.95
2022-09-15T00:28:54.930Z,3.15
2022-09-15T00:31:23.580Z,5.43
2022-09-15T00:33:52.302Z,2.88
2022-09-15T00:36:20.241Z,5.07
2022-09-15T00:38:47.622Z,4.00
2022-09-15T00:41:19.331Z,4.05
2022-09-15T00:43:51.697Z,4.03
2022-09-15T00:46:22.582Z,3.40
2022-09-15T00:48:55.796Z,3.58
2022-09-15T00:51:30.107Z,4.63
2022-09-15T00:53:58.083Z,3.17
2022-09-15T00:56:25.103Z,1.95
2022-09-15T00:59:01.931Z,5.85
2022-09-15T01:01:31.338Z,3.17
2022-09-15T01:03:58.507Z,5.03
2022-09-15T01:06:42.589Z,6.28
2022-09-15T01:09:14.434Z,5.10
2022-09-15T01:11:41.298Z,5.40
2022-09-15T01:14:08.422Z,4.45
2022-09-15T01:16:56.259Z,4.20
2022-09-15T01:19:41.412Z,4.18
2022-09-15T01:22:13.592Z,7.80
2022-09-15T01:25:16.981Z,4.38
2022-09-15T01:27:43.369Z,4.72
2022-09-15T01:30:25.346Z,4.43
2022-09-15T01:33:04.191Z,7.13
2022-09-15T01:35:45.759Z,4.28
2022-09-15T01:38:54.722Z,6.75
2022-09-15T01:41:29.439Z,5.93
2022-09-15T01:44:04.521Z,4.00
2022-09-15T01:46:35.149Z,5.25
2022-09-15T01:49:05.052Z,3.67
2022-09-15T01:51:33.984Z,5.55
2022-09-15T01:54:03.691Z,2.78
2022-09-15T01:56:30.180Z,4.97
2022-09-15T01:58:57.314Z,3.30
2022-09-15T02:01:51.318Z,2.47
2022-09-15T02:04:25.424Z,5.70
2022-09-15T02:07:16.644Z,3.85
2022-09-15T02:09:51.067Z,4.03
2022-09-15T02:12:19.959Z,2.13
2022-09-15T02:14:57.452Z,5.32
2022-09-15T02:17:28.183Z,4.85
2022-09-15T02:20:02.647Z,4.47
2022-09-15T02:22:32.438Z,4.03
2022-09-15T02:25:04.335Z,4.07
2022-09-15T02:27:34.642Z,4.90
2022-09-15T02:30:06.470Z,3.47
2022-09-15T02:32:34.952Z,2.35
2022-09-15T02:35:05.174Z,2.60
2022-09-15T02:37:31.707Z,2.17
2022-09-15T02:39:59.914Z,5.93
2022-09-15T02:42:29.322Z,3.05
2022-09-15T02:44:56.378Z,3.70
2022-09-15T02:47:23.759Z,5.28
2022-09-15T02:49:50.422Z,4.90
2022-09-15T02:52:17.045Z,2.65
2022-09-15T02:54:43.553Z,3.40
2022-09-15T02:57:10.153Z,4.18
2022-09-15T02:59:36.661Z,3.22
2022-09-15T03:02:03.205Z,3.05
2022-09-15T03:04:29.750Z,3.20
2022-09-15T03:06:56.245Z,3.15
2022-09-15T03:09:22.740Z,5.13
2022-09-15T03:11:49.242Z,6.72
2022-09-15T03:14:15.760Z,2.58
2022-09-15T03:16:42.335Z,5.38
2022-09-15T03:19:08.915Z,3.75
2022-09-15T03:21:35.449Z,5.68
2022-09-15T03:24:02.195Z,4.10
2022-09-15T03:26:28.721Z,4.70
2022-09-15T03:28:55.320Z,5.13
2022-09-15T03:31:22.203Z,3.83
2022-09-15T03:33:48.908Z,4.20
2022-09-15T03:36:15.415Z,3.15
2022-09-15T03:38:42.064Z,3.78
2022-09-15T03:41:11.272Z,3.25
2022-09-15T03:43:38.477Z,3.38
2022-09-15T03:46:06.581Z,4.13
2022-09-15T03:48:35.327Z,4.47
2022-09-15T03:51:03.343Z,3.92
2022-09-15T03:53:35.180Z,5.72
2022-09-15T03:56:19.605Z,6.68
2022-09-15T03:58:46.091Z,3.72
2022-09-15T04:01:12.730Z,5.55
2022-09-15T04:03:45.280Z,3.13
2022-09-15T04:06:14.627Z,4.55
2022-09-15T04:08:41.219Z,6.40
2022-09-15T04:11:09.273Z,3.72
2022-09-15T04:13:37.308Z,5.53
2022-09-15T04:16:10.661Z,3.67
2022-09-15T04:18:37.307Z,5.35
2022-09-15T04:21:06.945Z,3.42
2022-09-15T04:23:34.147Z,4.40
2022-09-15T04:26:06.713Z,3.53
2022-09-15T04:28:36.303Z,8.07
2022-09-15T04:31:08.592Z,4.05
2022-09-15T04:33:35.671Z,4.43
2022-09-15T04:36:05.427Z,5.45
2022-09-15T04:38:32.049Z,4.30
2022-09-15T04:40:59.221Z,5.57
2022-09-15T04:43:26.818Z,5.03
2022-09-15T04:45:53.805Z,7.43
2022-09-15T04:48:21.203Z,5.93
2022-09-15T04:50:47.894Z,5.25
2022-09-15T04:53:14.883Z,6.63
2022-09-15T04:55:41.610Z,7.20
2022-09-15T04:58:08.532Z,6.32
2022-09-15T05:00:42.240Z,6.40
2022-09-15T05:03:13.093Z,8.77
2022-09-15T05:05:40.815Z,7.05
2022-09-15T05:08:07.712Z,7.53
2022-09-15T05:10:34.803Z,9.18
2022-09-15T05:13:01.374Z,6.20
2022-09-15T05:15:27.890Z,6.82
2022-09-15T05:17:54.422Z,6.90
2022-09-15T05:20:20.963Z,9.07
2022-09-15T05:22:47.491Z,8.55
2022-09-15T05:25:14.051Z,7.93
2022-09-15T05:27:40.588Z,8.00
2022-09-15T05:30:35.144Z,8.35
2022-09-15T05:32:54.307Z,4.22
2022-09-15T05:35:20.825Z,5.82
2022-09-15T05:37:47.305Z,5.55
2022-09-15T05:40:13.874Z,3.95
2022-09-15T05:42:40.397Z,5.00
2022-09-15T05:45:07.538Z,4.20
2022-09-15T05:47:34.186Z,2.83
2022-09-15T05:50:00.670Z,4.88
2022-09-15T05:52:27.154Z,3.67
2022-09-15T05:54:58.306Z,3.38
2022-09-15T05:57:25.651Z,3.67
2022-09-15T05:59:52.132Z,4.40
2022-09-15T06:02:18.758Z,2.30
2022-09-15T06:04:45.273Z,6.70
2022-09-15T06:07:11.771Z,4.13
2022-09-15T06:09:38.268Z,7.45
2022-09-15T06:12:04.831Z,4.28
2022-09-15T06:14:31.360Z,6.07
2022-09-15T06:16:57.891Z,7.57
2022-09-15T06:19:24.375Z,5.88
2022-09-15T06:21:50.898Z,3.88
2022-09-15T06:24:17.404Z,7.47
2022-09-15T06:26:43.921Z,5.68
2022-09-15T06:29:12.230Z,9.13
2022-09-15T06:31:38.922Z,6.55
2022-09-15T06:34:05.574Z,6.78
2022-09-15T06:36:32.519Z,6.25
2022-09-15T06:38:59.602Z,7.07
2022-09-15T06:41:26.489Z,7.43
2022-09-15T06:43:53.237Z,6.68
2022-09-15T06:46:22.541Z,9.52
2022-09-15T06:48:49.186Z,6.60
2022-09-15T06:51:17.666Z,5.65
2022-09-15T06:53:44.995Z,8.80
2022-09-15T06:56:14.043Z,5.88
2022-09-15T06:58:42.099Z,7.22
2022-09-15T07:01:11.186Z,10.30
2022-09-15T07:03:39.521Z,7.72
2022-09-15T07:06:07.895Z,6.32
2022-09-15T07:08:34.600Z,6.25
2022-09-15T07:11:01.115Z,7.40
2022-09-15T07:13:27.606Z,5.43
2022-09-15T07:15:57.085Z,5.63
2022-09-15T07:18:24.296Z,4.47
2022-09-15T07:20:51.503Z,6.60
2022-09-15T07:23:18.867Z,3.72
2022-09-15T07:25:45.571Z,5.78
2022-09-15T07:28:12.740Z,5.38
2022-09-15T07:30:39.271Z,7.80
2022-09-15T07:33:07.244Z,7.47
2022-09-15T07:35:33.762Z,7.65
2022-09-15T07:38:00.497Z,8.90
2022-09-15T07:40:28.225Z,5.55
2022-09-15T07:42:54.818Z,10.55
2022-09-15T07:45:21.413Z,5.55
2022-09-15T07:47:48.007Z,4.88
2022-09-15T07:50:14.508Z,6.22
2022-09-15T07:52:41.034Z,4.75
2022-09-15T07:55:07.924Z,8.98
2022-09-15T07:57:34.422Z,7.68
2022-09-15T08:00:00.938Z,8.23
2022-09-15T08:02:27.494Z,7.88
2022-09-15T08:04:54.042Z,7.50
2022-09-15T08:07:20.576Z,8.82
2022-09-15T08:09:47.070Z,9.68
2022-09-15T08:12:13.596Z,6.93
2022-09-15T08:14:40.072Z,7.07
2022-09-15T08:17:11.284Z,6.28
2022-09-15T08:19:38.083Z,8.20
2022-09-15T08:22:04.576Z,5.00
2022-09-15T08:24:31.071Z,5.45
2022-09-15T08:26:57.569Z,5.03
2022-09-15T08:29:24.069Z,4.53
2022-09-15T08:31:50.644Z,5.63
2022-09-15T08:34:17.789Z,8.90
2022-09-15T08:36:44.341Z,5.38
2022-09-15T08:39:11.268Z,4.55
2022-09-15T08:41:45.282Z,9.73
2022-09-15T08:44:33.360Z,9.32
2022-09-15T08:47:12.500Z,10.23
2022-09-15T08:49:51.055Z,5.38
2022-09-15T08:52:48.858Z,4.66
2022-09-15T08:55:32.488Z,8.95
2022-09-15T08:57:59.191Z,8.10
2022-09-15T09:00:26.806Z,6.07
2022-09-15T09:03:25.017Z,8.10
2022-09-15T09:06:03.301Z,9.52
2022-09-15T09:08:36.831Z,4.13
2022-09-15T09:13:59.753Z,6.05
2022-09-15T09:16:39.800Z,7.40
2022-09-15T09:19:34.682Z,6.68
2022-09-15T09:22:09.462Z,6.68
2022-09-15T09:24:38.966Z,3.78
2022-09-15T09:27:09.952Z,8.38
2022-09-15T09:29:43.944Z,10.13
2022-09-15T09:32:22.105Z,25.13
2022-09-15T09:34:59.292Z,38.63
2022-09-15T09:37:25.840Z,27.50
2022-09-15T09:39:52.434Z,28.40
2022-09-15T09:42:19.695Z,28.70
2022-09-15T09:44:47.193Z,38.45
2022-09-15T09:47:13.715Z,39.28
2022-09-15T09:49:45.467Z,35.83
2022-09-15T09:52:12.000Z,41.97
2022-09-15T09:54:38.504Z,34.20
2022-09-15T09:57:13.913Z,29.83
2022-09-15T09:59:48.347Z,34.92
2022-09-15T10:02:22.106Z,33.75
2022-09-15T10:04:54.177Z,36.22
2022-09-15T10:07:26.299Z,34.30
2022-09-15T10:09:58.475Z,33.17
2022-09-15T10:12:40.478Z,34.63
2022-09-15T10:15:20.505Z,35.58
2022-09-15T10:17:49.575Z,44.55
2022-09-15T10:20:24.617Z,40.00
2022-09-15T10:22:52.008Z,38.78
2022-09-15T10:25:21.215Z,39.97
2022-09-15T10:28:11.554Z,47.35
2022-09-15T10:30:39.578Z,45.80
2022-09-15T10:33:26.087Z,44.70
2022-09-15T10:35:54.461Z,43.55
2022-09-15T10:38:36.372Z,41.13
2022-09-15T10:41:12.099Z,41.22
2022-09-15T10:43:58.937Z,54.05
2022-09-15T10:46:41.620Z,50.38
2022-09-15T10:49:25.155Z,58.15
2022-09-15T10:52:05.478Z,51.08
2022-09-15T10:54:40.382Z,56.03
2022-09-15T10:57:38.046Z,42.42
2022-09-15T11:00:25.173Z,48.20
2022-09-15T11:03:16.250Z,48.47
2022-09-15T11:06:06.319Z,47.75
2022-09-15T11:08:44.956Z,34.35
2022-09-15T11:11:35.925Z,42.60
2022-09-15T11:14:28.503Z,36.67
2022-09-15T11:17:10.213Z,38.30
2022-09-15T11:20:01.299Z,32.45
2022-09-15T11:22:35.400Z,31.02
2022-09-15T11:25:22.953Z,35.05
2022-09-15T11:28:12.317Z,27.35
2022-09-15T11:30:51.023Z,25.40
2022-09-15T11:33:43.853Z,31.27
2022-09-15T11:36:15.426Z,26.77
2022-09-15T11:38:51.114Z,24.45
2022-09-15T11:41:19.312Z,30.75
2022-09-15T11:44:27.695Z,32.15
2022-09-15T11:47:22.105Z,27.63
2022-09-15T11:50:05.792Z,28.60
2022-09-15T11:52:35.164Z,25.75
2022-09-15T11:55:26.108Z,21.00
2022-09-15T11:58:25.974Z,31.27
2022-09-15T12:01:08.414Z,23.08
2022-09-15T12:04:00.604Z,26.23
2022-09-15T12:06:34.623Z,24.58
2022-09-15T12:09:04.583Z,26.35
2022-09-15T12:11:42.502Z,19.27
2022-09-15T12:14:16.464Z,24.10
2022-09-15T12:16:43.949Z,21.92
2022-09-15T12:19:32.179Z,22.58
2022-09-15T12:22:17.839Z,25.77
2022-09-15T12:24:53.294Z,23.05
2022-09-15T12:27:20.595Z,30.52
2022-09-15T12:29:55.149Z,26.00
2022-09-15T12:32:21.586Z,19.70
2022-09-15T12:35:17.475Z,34.40
2022-09-15T12:37:58.047Z,30.88
2022-09-15T12:40:32.533Z,23.23
2022-09-15T12:43:02.147Z,19.95
2022-09-15T12:45:30.239Z,19.02
2022-09-15T12:48:10.513Z,21.85
2022-09-15T12:50:40.802Z,19.23
2022-09-15T12:53:24.609Z,19.55
2022-09-15T12:56:06.897Z,12.68
2022-09-15T12:58:39.198Z,14.30
2022-09-15T13:01:18.791Z,13.45
2022-09-15T13:03:45.679Z,16.50
2022-09-15T13:07:22.280Z,13.30
2022-09-15T13:11:02.458Z,16.67
2022-09-15T13:14:29.052Z,13.35
2022-09-15T13:17:51.054Z,9.88
2022-09-15T13:21:17.699Z,16.60
2022-09-15T13:24:44.289Z,20.73
2022-09-15T13:28:04.275Z,24.95
2022-09-15T13:31:35.488Z,28.27
2022-09-15T13:35:18.564Z,25.00
2022-09-15T13:38:14.041Z,27.75
2022-09-15T13:41:57.931Z,18.42
2022-09-15T13:45:53.111Z,32.40
2022-09-15T13:49:24.146Z,29.65
2022-09-15T13:53:00.469Z,25.50
2022-09-15T13:56:22.918Z,23.42
2022-09-15T13:59:42.400Z,25.95
2022-09-15T14:03:12.898Z,27.88
2022-09-15T14:06:34.985Z,27.48
2022-09-15T14:09:55.807Z,22.73
2022-09-15T14:13:15.799Z,24.48
2022-09-15T14:16:49.410Z,22.85
2022-09-15T14:20:23.682Z,27.73
2022-09-15T14:23:48.810Z,26.00
2022-09-15T14:27:08.485Z,22.52
2022-09-15T14:29:58.270Z,29.00
2022-09-15T14:33:18.770Z,26.45
2022-09-15T14:36:38.055Z,21.42
2022-09-15T14:39:25.874Z,27.98
2022-09-15T14:42:44.946Z,19.55
2022-09-15T14:46:10.176Z,24.27
2022-09-15T14:48:36.731Z,31.55
2022-09-15T14:51:16.174Z,30.00
2022-09-15T14:53:43.624Z,29.40
2022-09-15T14:56:19.845Z,25.52
2022-09-15T14:58:56.191Z,26.83
2022-09-15T15:01:40.875Z,23.92
2022-09-15T15:04:12.406Z,24.77
2022-09-15T15:06:41.509Z,24.50
2022-09-15T15:09:30.195Z,20.02
2022-09-15T15:12:13.069Z,23.38
2022-09-15T15:14:39.635Z,27.73
2022-09-15T15:17:06.319Z,23.00
2022-09-15T15:19:41.054Z,21.25
2022-09-15T15:22:13.707Z,16.23
2022-09-15T15:24:42.867Z,20.92
2022-09-15T15:27:34.533Z,22.63
2022-09-15T15:30:23.776Z,18.45
2022-09-15T15:32:50.392Z,20.35
2022-09-15T15:35:18.202Z,23.60
2022-09-15T15:37:45.050Z,19.58
2022-09-15T15:40:19.297Z,19.40
2022-09-15T15:43:22.843Z,27.77
2022-09-15T15:45:58.156Z,24.38
2022-09-15T15:48:29.538Z,19.35
2022-09-15T15:50:58.962Z,20.88
2022-09-15T15:53:26.380Z,16.92
2022-09-15T15:55:53.111Z,21.05
2022-09-15T15:58:19.951Z,11.43
2022-09-15T16:00:46.450Z,14.93
2022-09-15T16:03:14.809Z,15.45
2022-09-15T16:05:44.737Z,18.17
2022-09-15T16:08:18.335Z,18.23
2022-09-15T16:10:48.180Z,17.80
2022-09-15T16:13:16.898Z,18.42
2022-09-15T16:15:44.470Z,19.50
2022-09-15T16:18:11.529Z,19.92
2022-09-15T16:20:38.528Z,18.52
2022-09-15T16:23:05.555Z,12.13
2022-09-15T16:25:53.415Z,8.85
2022-09-15T16:28:20.072Z,10.88
2022-09-15T16:30:46.660Z,13.38
2022-09-15T16:33:15.269Z,19.17
2022-09-15T16:35:57.199Z,16.17
2022-09-15T16:38:24.164Z,12.00
2022-09-15T16:40:51.379Z,10.85
2022-09-15T16:43:20.554Z,12.77
2022-09-15T16:45:47.994Z,10.85
2022-09-15T16:48:14.943Z,12.15
2022-09-15T16:50:50.126Z,9.68
2022-09-15T16:53:22.516Z,10.55
2022-09-15T16:55:51.448Z,12.65
2022-09-15T16:58:19.703Z,15.80
2022-09-15T17:00:48.160Z,15.70
2022-09-15T17:03:16.736Z,15.23
2022-09-15T17:05:48.575Z,17.50
2022-09-15T17:08:16.849Z,17.60
2022-09-15T17:10:43.887Z,10.45
2022-09-15T17:13:15.291Z,11.30
2022-09-15T17:15:42.235Z,6.40
2022-09-15T17:18:09.309Z,11.48
2022-09-15T17:20:39.148Z,9.10
2022-09-15T17:23:21.689Z,12.82
2022-09-15T17:25:48.443Z,9.10
2022-09-15T17:28:15.237Z,13.57
2022-09-15T17:30:41.731Z,10.60
2022-09-15T17:33:12.356Z,7.57
2022-09-15T17:35:39.115Z,12.68
2022-09-15T17:38:06.976Z,14.32
2022-09-15T17:40:35.095Z,15.18
2022-09-15T17:43:02.571Z,14.02
2022-09-15T17:45:33.157Z,11.25
2022-09-15T17:48:00.294Z,9.20
2022-09-15T17:50:28.521Z,7.88
2022-09-15T17:52:55.960Z,8.40
2022-09-15T17:55:29.625Z,12.32
2022-09-15T17:58:15.087Z,8.82
2022-09-15T18:00:42.886Z,11.82
2022-09-15T18:03:32.104Z,10.07
2022-09-15T18:06:00.131Z,7.72
2022-09-15T18:08:27.530Z,7.07
2022-09-15T18:10:54.819Z,8.55
2022-09-15T18:13:23.628Z,11.85
2022-09-15T18:15:50.512Z,9.45
2022-09-15T18:18:20.805Z,11.35
2022-09-15T18:20:48.467Z,9.63
2022-09-15T18:23:17.315Z,9.30
2022-09-15T18:25:45.514Z,10.13
2022-09-15T18:28:12.075Z,12.05
2022-09-15T18:30:40.953Z,9.63
2022-09-15T18:33:13.267Z,6.07
2022-09-15T18:35:40.845Z,9.50
2022-09-15T18:38:08.065Z,10.65
2022-09-15T18:40:34.571Z,7.63
2022-09-15T18:43:01.121Z,6.78
2022-09-15T18:45:28.282Z,5.30
2022-09-15T18:47:54.861Z,7.07
2022-09-15T18:50:23.530Z,7.47
2022-09-15T18:52:50.071Z,8.75
2022-09-15T18:55:19.996Z,7.95
2022-09-15T18:57:47.108Z,7.70
2022-09-15T19:00:16.680Z,5.22
2022-09-15T19:02:43.845Z,7.57
2022-09-15T19:05:11.390Z,4.80
2022-09-15T19:07:38.867Z,6.90
2022-09-15T19:10:07.268Z,6.82
2022-09-15T19:12:35.507Z,6.05
2022-09-15T19:15:02.983Z,7.18
2022-09-15T19:17:29.516Z,4.40
2022-09-15T19:19:56.001Z,6.20
2022-09-15T19:22:22.529Z,5.78
2022-09-15T19:24:49.516Z,5.88
2022-09-15T19:27:16.004Z,5.15
2022-09-15T19:29:42.500Z,5.28
2022-09-15T19:32:11.183Z,6.40
2022-09-15T19:34:38.817Z,6.70
2022-09-15T19:37:11.389Z,7.95
2022-09-15T19:39:39.936Z,6.43
2022-09-15T19:42:07.767Z,6.38
2022-09-15T19:44:34.625Z,6.57
2022-09-15T19:47:01.207Z,5.68
2022-09-15T19:49:27.704Z,4.68
2022-09-15T19:51:54.572Z,6.63
2022-09-15T19:54:26.490Z,6.60
2022-09-15T19:56:53.259Z,4.80
2022-09-15T19:59:20.201Z,4.65
2022-09-15T20:01:47.044Z,5.72
2022-09-15T20:06:55.435Z,3.88
2022-09-15T20:09:22.283Z,4.50
2022-09-15T20:11:48.744Z,4.65
2022-09-15T20:14:15.281Z,5.93
2022-09-15T20:16:41.826Z,4.45
2022-09-15T20:19:08.459Z,6.18
2022-09-15T20:21:52.482Z,4.25
2022-09-15T20:24:20.147Z,5.47
2022-09-15T20:26:46.693Z,4.90
2022-09-15T20:29:13.992Z,5.68
2022-09-15T20:31:40.499Z,5.40
2022-09-15T20:34:07.238Z,3.47
2022-09-15T20:36:35.987Z,4.32
2022-09-15T20:39:06.153Z,4.75
2022-09-15T20:41:32.723Z,4.82
2022-09-15T20:43:59.579Z,3.88
2022-09-15T20:46:26.383Z,5.97
2022-09-15T20:48:52.952Z,4.68
2022-09-15T20:51:24.640Z,5.70
2022-09-15T20:53:56.215Z,5.05
2022-09-15T20:56:25.022Z,2.67
2022-09-15T20:58:58.602Z,3.80
2022-09-15T21:01:32.183Z,6.57
2022-09-15T21:03:58.969Z,3.67
2022-09-15T21:06:27.253Z,5.00
2022-09-15T21:08:54.283Z,3.55
2022-09-15T21:11:21.191Z,4.47
2022-09-15T21:13:48.395Z,4.53
2022-09-15T21:16:17.668Z,4.68
2022-09-15T21:18:45.219Z,4.65
2022-09-15T21:21:22.069Z,5.30
2022-09-15T21:23:51.285Z,4.90
2022-09-15T21:26:20.337Z,4.55
2022-09-15T21:28:47.279Z,4.00
2022-09-15T21:31:19.288Z,4.25
2022-09-15T21:33:47.225Z,2.53
2022-09-15T21:36:18.904Z,6.70
2022-09-15T21:38:45.464Z,3.72
2022-09-15T21:41:14.482Z,3.45
2022-09-15T21:43:42.746Z,6.03
2022-09-15T21:46:17.469Z,4.22
2022-09-15T21:48:46.378Z,6.50
2022-09-15T21:51:14.307Z,3.15
2022-09-15T21:53:41.642Z,4.55
2022-09-15T21:56:12.384Z,3.40
2022-09-15T21:58:43.048Z,3.38
2022-09-15T22:01:14.998Z,3.80
2022-09-15T22:03:42.178Z,2.70
2022-09-15T22:06:10.694Z,4.55
2022-09-15T22:08:38.990Z,3.28
2022-09-15T22:11:06.351Z,3.92
2022-09-15T22:13:35.572Z,4.22
2022-09-15T22:16:07.908Z,4.32
2022-09-15T22:18:38.782Z,4.38
2022-09-15T22:21:09.559Z,3.00
2022-09-15T22:23:36.056Z,3.25
2022-09-15T22:26:04.882Z,2.67
2022-09-15T22:28:31.688Z,3.63
2022-09-15T22:31:03.578Z,4.30
2022-09-15T22:33:30.531Z,3.28
2022-09-15T22:35:57.437Z,1.98
2022-09-15T22:38:25.284Z,3.55
2022-09-15T22:40:51.815Z,5.53
2022-09-15T22:43:18.355Z,2.85
2022-09-15T22:45:44.976Z,4.03
2022-09-15T22:48:11.483Z,3.50
2022-09-15T22:50:38.234Z,4.82
2022-09-15T22:53:04.984Z,4.78
2022-09-15T22:55:32.183Z,3.65
2022-09-15T22:57:58.704Z,3.28
2022-09-15T23:00:25.200Z,3.45
2022-09-15T23:02:51.730Z,3.78
2022-09-15T23:05:18.227Z,2.17
2022-09-15T23:07:44.788Z,4.57
2022-09-15T23:10:11.318Z,4.30
2022-09-15T23:12:37.849Z,3.97
2022-09-15T23:15:05.453Z,2.30
2022-09-15T23:17:31.997Z,4.25
2022-09-15T23:19:58.513Z,5.00
2022-09-15T23:22:25.027Z,3.28
2022-09-15T23:24:51.691Z,3.33
2022-09-15T23:27:18.735Z,3.95
2022-09-15T23:29:45.229Z,5.05
2022-09-15T23:32:11.741Z,3.97
2022-09-15T23:34:38.267Z,3.35
2022-09-15T23:37:04.868Z,3.97
2022-09-15T23:39:31.406Z,5.70
2022-09-15T23:41:57.926Z,3.50
2022-09-15T23:44:24.454Z,3.92
2022-09-15T23:46:50.999Z,2.70
2022-09-15T23:49:18.846Z,3.20
2022-09-15T23:51:45.493Z,5.15
2022-09-15T23:54:12.039Z,4.85
2022-09-15T23:56:38.556Z,5.68
2022-09-15T23:59:05.112Z,3.58
